Startpagina
METAR-TAF:

METAR-TAF

Vliegvelden :

Luchthaven Seychellen

Victoria, Mahé, Seychellen

breedte: 04-40S, lengte: 055-31E, hoogte: 3 m

Actueel weer

Dit bericht is 23 minuten geleden gemaakt, om 23:00 UTC
Wind 4 kt uit het zuidoosten
Temperatuur 27°C
Vochtigheid 89%
Druk 1009 hPa

METAR: FSIA 262300Z AUTO 13004KT //// R13///// // SCT014/// 27/25 Q1009

Tijdstip: 03:23 (23:23 UTC)

Verwachting

Dit bericht is 6 uur en het 22 minuten geleden gemaakt, om 17:01 UTC
Verwachting geldig van 26 om 18 UTC tot 27 om 18 UTC
Wind 10 kt uit het zuidzuidoosten
Zicht 10 km of meer
Verspreide wolken op 2000 ft
Kans 40% :
Tijdelijke
van 27 om 00 UTC tot 27 om 06 UTC
Gebroken wolken op 1800 ft
lichte regenbuien

TAF: FSIA 261701Z 2618/2718 15010KT 9999 SCT020 PROB40 TEMPO 2700/2706 -SHRA BKN018

Waarnemingen en weersverwachtingen van meer dan 4000 vliegvelden (METAR en TAF).

De beschikbare stations zijn de gele en rode punten op de kaart.

Ga met uw muis naar het station om de naam te zien.

Klik dan om waarnemingen en weersverwachtingen te zien.

kaart wijzigen: klik op de groene knoppen met een zwart kruis om in te zoomen, op de groene knop met een streepje om uit te zoomen of op de groene pijlen voor aangrenzende kaarten.


METAR-TAF: